createdAt,value
2022-09-24T00:01:57.489Z,61.75
2022-09-24T00:04:27.686Z,62.12
2022-09-24T00:06:54.335Z,62.12
2022-09-24T00:09:21.896Z,63.84
2022-09-24T00:11:51.753Z,63.41
2022-09-24T00:14:18.553Z,64.94
2022-09-24T00:16:46.145Z,64.29
2022-09-24T00:19:14.115Z,62.97
2022-09-24T00:21:42.118Z,63.93
2022-09-24T00:24:17.697Z,63.02
2022-09-24T00:26:44.307Z,64.97
2022-09-24T00:29:13.928Z,64.39
2022-09-24T00:31:40.867Z,66.80
2022-09-24T00:34:08.396Z,68.28
2022-09-24T00:36:36.685Z,67.62
2022-09-24T00:39:04.368Z,68.11
2022-09-24T00:41:34.706Z,69.14
2022-09-24T00:44:01.682Z,70.93
2022-09-24T00:46:39.161Z,72.80
2022-09-24T00:49:14.179Z,73.76
2022-09-24T00:51:45.414Z,73.89
2022-09-24T00:54:19.502Z,75.05
2022-09-24T00:56:50.088Z,76.45
2022-09-24T00:59:21.543Z,76.55
2022-09-24T01:01:50.625Z,76.04
2022-09-24T01:04:20.155Z,76.59
2022-09-24T01:06:49.231Z,75.89
2022-09-24T01:09:19.194Z,76.49
2022-09-24T01:12:03.875Z,76.24
2022-09-24T01:14:52.295Z,76.72
2022-09-24T01:17:42.006Z,77.34
2022-09-24T01:20:37.414Z,77.08
2022-09-24T01:23:21.799Z,78.02
2022-09-24T01:26:03.339Z,77.01
2022-09-24T01:28:32.848Z,77.34
2022-09-24T01:31:14.137Z,76.80
2022-09-24T01:33:45.883Z,76.75
2022-09-24T01:36:16.626Z,77.02
2022-09-24T01:38:47.209Z,76.24
2022-09-24T01:41:17.403Z,75.94
2022-09-24T01:43:45.350Z,77.67
2022-09-24T01:46:13.589Z,78.05
2022-09-24T01:48:41.426Z,76.67
2022-09-24T01:51:30.436Z,79.07
2022-09-24T01:54:16.562Z,76.55
2022-09-24T01:56:51.958Z,76.90
2022-09-24T01:59:22.341Z,76.31
2022-09-24T02:02:01.221Z,77.43
2022-09-24T02:04:33.561Z,77.29
2022-09-24T02:07:35.508Z,75.15
2022-09-24T02:10:02.216Z,75.70
2022-09-24T02:12:38.008Z,76.52
2022-09-24T02:15:17.369Z,75.83
2022-09-24T02:17:53.129Z,76.05
2022-09-24T02:20:23.518Z,75.33
2022-09-24T02:22:55.010Z,74.11
2022-09-24T02:25:40.812Z,74.21
2022-09-24T02:28:07.701Z,73.90
2022-09-24T02:30:42.964Z,72.57
2022-09-24T02:33:15.143Z,72.57
2022-09-24T02:35:41.857Z,74.93
2022-09-24T02:38:16.514Z,76.63
2022-09-24T02:40:43.318Z,76.60
2022-09-24T02:43:09.966Z,75.03
2022-09-24T02:45:36.560Z,75.39
2022-09-24T02:48:03.215Z,76.29
2022-09-24T02:50:29.876Z,74.56
2022-09-24T02:52:56.502Z,74.72
2022-09-24T02:55:23.320Z,75.32
2022-09-24T02:57:50.268Z,76.40
2022-09-24T03:00:17.076Z,77.18
2022-09-24T03:02:43.803Z,75.74
2022-09-24T03:05:10.606Z,74.17
2022-09-24T03:07:37.398Z,72.87
2022-09-24T03:10:04.313Z,71.99
2022-09-24T03:12:30.955Z,72.76
2022-09-24T03:14:57.572Z,71.76
2022-09-24T03:17:24.204Z,72.90
2022-09-24T03:19:50.832Z,75.36
2022-09-24T03:22:17.790Z,72.51
2022-09-24T03:24:45.429Z,72.67
2022-09-24T03:27:12.327Z,72.50
2022-09-24T03:29:39.084Z,71.70
2022-09-24T03:32:06.270Z,72.22
2022-09-24T03:34:33.046Z,71.49
2022-09-24T03:36:59.730Z,72.63
2022-09-24T03:39:26.430Z,70.50
2022-09-24T03:41:52.990Z,70.38
2022-09-24T03:44:19.965Z,71.96
2022-09-24T03:46:46.599Z,71.83
2022-09-24T03:49:13.185Z,71.14
2022-09-24T03:51:39.773Z,70.22
2022-09-24T03:54:06.523Z,69.54
2022-09-24T03:56:33.151Z,73.05
2022-09-24T03:58:59.730Z,73.49
2022-09-24T04:01:26.326Z,75.04
2022-09-24T04:03:54.092Z,76.07
2022-09-24T04:06:25.591Z,75.65
2022-09-24T04:08:53.128Z,75.47
2022-09-24T04:11:19.787Z,75.96
2022-09-24T04:13:46.362Z,74.01
2022-09-24T04:16:13.024Z,74.87
2022-09-24T04:18:39.776Z,76.50
2022-09-24T04:21:07.174Z,75.07
2022-09-24T04:23:34.209Z,74.02
2022-09-24T04:26:01.280Z,75.08
2022-09-24T04:28:29.297Z,76.68
2022-09-24T04:30:56.562Z,77.79
2022-09-24T04:33:23.190Z,78.67
2022-09-24T04:35:49.777Z,75.85
2022-09-24T04:38:16.382Z,74.28
2022-09-24T04:40:43.009Z,74.86
2022-09-24T04:43:09.782Z,75.24
2022-09-24T04:45:38.349Z,76.22
2022-09-24T04:48:05.095Z,77.47
2022-09-24T04:50:31.867Z,77.72
2022-09-24T04:52:58.970Z,75.39
2022-09-24T04:55:25.950Z,75.99
2022-09-24T04:57:54.938Z,76.28
2022-09-24T05:00:21.561Z,76.47
2022-09-24T05:02:56.067Z,75.02
2022-09-24T05:05:22.901Z,75.58
2022-09-24T05:07:49.520Z,74.93
2022-09-24T05:10:16.225Z,73.82
2022-09-24T05:12:42.799Z,73.41
2022-09-24T05:15:10.182Z,74.31
2022-09-24T05:17:40.125Z,73.97
2022-09-24T05:20:08.570Z,76.70
2022-09-24T05:22:35.161Z,76.08
2022-09-24T05:25:01.772Z,74.49
2022-09-24T05:27:28.351Z,75.83
2022-09-24T05:29:54.912Z,76.88
2022-09-24T05:32:21.511Z,78.89
2022-09-24T05:34:48.149Z,76.52
2022-09-24T05:37:15.705Z,74.52
2022-09-24T05:39:42.445Z,75.74
2022-09-24T05:42:12.643Z,75.64
2022-09-24T05:44:39.563Z,73.91
2022-09-24T05:47:06.179Z,75.35
2022-09-24T05:49:33.032Z,77.01
2022-09-24T05:51:59.635Z,77.05
2022-09-24T05:54:26.228Z,76.52
2022-09-24T05:56:52.940Z,75.99
2022-09-24T05:59:19.657Z,77.32
2022-09-24T06:01:46.437Z,76.63
2022-09-24T06:04:13.088Z,77.00
2022-09-24T06:06:39.686Z,75.92
2022-09-24T06:09:06.596Z,77.05
2022-09-24T06:11:36.361Z,77.23
2022-09-24T06:14:06.590Z,78.59
2022-09-24T06:16:33.988Z,79.04
2022-09-24T06:19:00.979Z,78.13
2022-09-24T06:21:28.361Z,77.62
2022-09-24T06:23:54.920Z,76.89
2022-09-24T06:26:21.931Z,75.27
2022-09-24T06:28:48.539Z,78.18
2022-09-24T06:31:15.245Z,78.29
2022-09-24T06:33:42.300Z,79.69
2022-09-24T06:36:08.977Z,80.01
2022-09-24T06:38:35.804Z,79.30
2022-09-24T06:41:05.886Z,79.94
2022-09-24T06:43:34.471Z,79.28
2022-09-24T06:46:01.361Z,79.68
2022-09-24T06:48:28.692Z,81.15
2022-09-24T06:50:55.555Z,81.71
2022-09-24T06:53:22.156Z,82.96
2022-09-24T06:55:48.742Z,83.87
2022-09-24T06:58:19.031Z,84.12
2022-09-24T07:00:54.472Z,83.03
2022-09-24T07:03:25.226Z,83.23
2022-09-24T07:05:51.824Z,82.75
2022-09-24T07:08:18.453Z,83.29
2022-09-24T07:10:46.508Z,82.58
2022-09-24T07:13:14.163Z,82.51
2022-09-24T07:15:42.452Z,81.86
2022-09-24T07:18:09.729Z,81.97
2022-09-24T07:20:36.360Z,81.40
2022-09-24T07:23:05.006Z,81.20
2022-09-24T07:25:32.832Z,80.22
2022-09-24T07:28:05.403Z,79.12
2022-09-24T07:30:34.067Z,78.85
2022-09-24T07:33:01.112Z,78.10
2022-09-24T07:35:28.927Z,75.62
2022-09-24T07:38:05.765Z,77.07
2022-09-24T07:40:32.882Z,77.01
2022-09-24T07:42:59.678Z,75.90
2022-09-24T07:45:28.505Z,74.28
2022-09-24T07:48:04.270Z,75.21
2022-09-24T07:50:33.973Z,77.45
2022-09-24T07:53:01.096Z,77.98
2022-09-24T07:55:27.919Z,76.53
2022-09-24T07:57:55.927Z,78.22
2022-09-24T08:00:24.749Z,74.52
2022-09-24T08:02:51.605Z,77.15
2022-09-24T08:05:18.233Z,77.03
2022-09-24T08:07:52.823Z,75.49
2022-09-24T08:10:19.542Z,75.95
2022-09-24T08:12:46.149Z,76.10
2022-09-24T08:15:13.402Z,76.77
2022-09-24T08:17:39.993Z,76.17
2022-09-24T08:20:06.923Z,76.03
2022-09-24T08:22:33.695Z,77.47
2022-09-24T08:25:00.308Z,76.15
2022-09-24T08:27:27.957Z,75.61
2022-09-24T08:29:54.549Z,76.23
2022-09-24T08:32:21.150Z,73.66
2022-09-24T08:34:47.773Z,75.15
2022-09-24T08:37:14.362Z,74.80
2022-09-24T08:39:40.952Z,76.31
2022-09-24T08:42:21.359Z,73.93
2022-09-24T08:44:50.329Z,74.38
2022-09-24T08:47:22.737Z,74.28
2022-09-24T08:49:58.340Z,73.52
2022-09-24T08:52:42.926Z,75.31
2022-09-24T08:55:17.851Z,76.52
2022-09-24T08:57:58.290Z,77.40
2022-09-24T09:00:25.467Z,78.43
2022-09-24T09:03:01.372Z,77.47
2022-09-24T09:05:47.263Z,79.83
2022-09-24T09:09:05.807Z,79.40
2022-09-24T09:11:34.639Z,78.82
2022-09-24T09:14:22.447Z,77.89
2022-09-24T09:16:54.151Z,77.21
2022-09-24T09:19:28.674Z,76.43
2022-09-24T09:22:10.155Z,76.57
2022-09-24T09:24:45.738Z,77.80
2022-09-24T09:27:14.224Z,79.72
2022-09-24T09:29:56.440Z,80.10
2022-09-24T09:32:59.975Z,77.63
2022-09-24T09:35:46.014Z,76.53
2022-09-24T09:38:46.119Z,75.34
2022-09-24T09:41:27.953Z,74.95
2022-09-24T09:44:23.983Z,74.14
2022-09-24T09:47:11.644Z,74.50
2022-09-24T09:49:40.310Z,73.96
2022-09-24T09:52:21.012Z,72.51
2022-09-24T09:54:48.162Z,71.70
2022-09-24T09:57:22.797Z,74.11
2022-09-24T09:59:52.999Z,72.98
2022-09-24T10:02:34.067Z,72.12
2022-09-24T10:05:08.574Z,71.29
2022-09-24T10:07:45.280Z,69.61
2022-09-24T10:10:23.632Z,68.90
2022-09-24T10:13:09.068Z,69.49
2022-09-24T10:15:53.492Z,67.76
2022-09-24T10:18:46.373Z,66.41
2022-09-24T10:21:36.712Z,65.48
2022-09-24T10:24:12.196Z,66.52
2022-09-24T10:26:45.710Z,69.01
2022-09-24T10:29:33.856Z,67.85
2022-09-24T10:32:00.809Z,68.90
2022-09-24T10:34:29.497Z,68.07
2022-09-24T10:37:07.259Z,68.71
2022-09-24T10:39:36.892Z,65.85
2022-09-24T10:42:03.516Z,66.30
2022-09-24T10:44:36.283Z,67.00
2022-09-24T10:47:44.472Z,65.54
2022-09-24T10:50:43.029Z,65.08
2022-09-24T10:53:32.145Z,66.85
2022-09-24T10:56:26.436Z,68.03
2022-09-24T10:59:02.043Z,71.26
2022-09-24T11:01:45.316Z,69.98
2022-09-24T11:04:20.826Z,68.88
2022-09-24T11:06:53.492Z,67.59
2022-09-24T11:09:50.691Z,62.89
2022-09-24T11:12:29.927Z,65.01
2022-09-24T11:15:08.759Z,67.85
2022-09-24T11:17:56.958Z,65.53
2022-09-24T11:20:36.521Z,63.94
2022-09-24T11:23:40.521Z,64.02
2022-09-24T11:26:41.897Z,67.94
2022-09-24T11:29:23.305Z,69.67
2022-09-24T11:32:06.652Z,67.36
2022-09-24T11:34:46.940Z,69.26
2022-09-24T11:37:32.587Z,67.54
2022-09-24T11:40:11.446Z,66.46
2022-09-24T11:43:07.723Z,66.00
2022-09-24T11:46:11.658Z,67.20
2022-09-24T11:48:50.021Z,66.77
2022-09-24T11:51:41.602Z,64.42
2022-09-24T11:54:23.570Z,62.74
2022-09-24T11:56:58.354Z,63.80
2022-09-24T12:00:03.708Z,64.73
2022-09-24T12:02:37.045Z,63.00
2022-09-24T12:05:18.394Z,67.20
2022-09-24T12:07:51.647Z,66.62
2022-09-24T12:10:38.596Z,66.12
2022-09-24T12:13:20.721Z,62.65
2022-09-24T12:16:11.958Z,61.84
2022-09-24T12:18:58.676Z,61.08
2022-09-24T12:21:37.220Z,63.68
2022-09-24T12:24:27.988Z,64.59
2022-09-24T12:27:01.054Z,61.18
2022-09-24T12:29:50.787Z,62.34
2022-09-24T12:32:33.694Z,63.20
2022-09-24T12:35:19.837Z,62.30
2022-09-24T12:37:52.306Z,63.05
2022-09-24T12:40:27.919Z,62.73
2022-09-24T12:43:00.676Z,66.23
2022-09-24T12:45:27.969Z,63.30
2022-09-24T12:47:59.732Z,62.93
2022-09-24T12:50:32.712Z,62.62
2022-09-24T12:53:01.828Z,61.57
2022-09-24T12:55:34.403Z,61.43
2022-09-24T12:58:28.581Z,63.17
2022-09-24T13:01:14.984Z,62.35
2022-09-24T13:03:47.003Z,62.04
2022-09-24T13:06:37.274Z,62.10
2022-09-24T13:09:44.042Z,61.08
2022-09-24T13:12:13.324Z,60.58
2022-09-24T13:14:47.908Z,59.84
2022-09-24T13:17:16.761Z,59.59
2022-09-24T13:19:46.643Z,59.49
2022-09-24T13:22:25.783Z,57.98
2022-09-24T13:25:09.229Z,56.54
2022-09-24T13:27:41.706Z,58.20
2022-09-24T13:30:20.947Z,56.53
2022-09-24T13:33:09.498Z,58.97
2022-09-24T13:36:17.351Z,58.93
2022-09-24T13:38:51.798Z,58.64
2022-09-24T13:41:42.037Z,57.26
2022-09-24T13:44:20.290Z,57.44
2022-09-24T13:46:59.230Z,58.10
2022-09-24T13:49:31.989Z,58.98
2022-09-24T13:52:15.373Z,59.39
2022-09-24T13:54:53.875Z,60.98
2022-09-24T13:57:25.995Z,59.90
2022-09-24T14:00:11.100Z,59.34
2022-09-24T14:02:38.453Z,60.03
2022-09-24T14:05:14.812Z,57.84
2022-09-24T14:07:42.301Z,59.74
2022-09-24T14:10:15.345Z,57.74
2022-09-24T14:12:41.941Z,56.91
2022-09-24T14:15:16.761Z,56.47
2022-09-24T14:17:43.698Z,61.17
2022-09-24T14:20:14.845Z,62.53
2022-09-24T14:22:45.542Z,63.47
2022-09-24T14:25:29.892Z,63.14
2022-09-24T14:28:01.633Z,62.74
2022-09-24T14:30:32.352Z,61.85
2022-09-24T14:33:00.778Z,61.10
2022-09-24T14:35:31.989Z,61.20
2022-09-24T14:38:18.548Z,59.88
2022-09-24T14:40:50.448Z,58.76
2022-09-24T14:43:20.893Z,59.10
2022-09-24T14:45:51.147Z,58.66
2022-09-24T14:48:29.917Z,57.75
2022-09-24T14:50:56.658Z,60.19
2022-09-24T14:53:34.884Z,61.07
2022-09-24T14:56:19.985Z,63.30
2022-09-24T14:58:46.650Z,61.46
2022-09-24T15:01:16.924Z,61.13
2022-09-24T15:03:49.559Z,63.26
2022-09-24T15:06:32.332Z,62.45
2022-09-24T15:09:02.831Z,63.10
2022-09-24T15:11:33.197Z,61.55
2022-09-24T15:14:08.558Z,61.95
2022-09-24T15:16:36.441Z,62.70
2022-09-24T15:19:24.132Z,61.54
2022-09-24T15:21:56.453Z,62.55
2022-09-24T15:24:24.494Z,61.00
2022-09-24T15:27:06.529Z,59.55
2022-09-24T15:29:33.234Z,60.21
2022-09-24T15:31:59.901Z,59.32
2022-09-24T15:34:26.488Z,60.20
2022-09-24T15:36:58.815Z,60.66
2022-09-24T15:39:28.879Z,60.74
2022-09-24T15:41:55.606Z,61.70
2022-09-24T15:44:29.720Z,61.49
2022-09-24T15:46:59.710Z,60.84
2022-09-24T15:49:26.467Z,60.03
2022-09-24T15:52:04.239Z,59.49
2022-09-24T15:54:30.886Z,59.04
2022-09-24T15:56:57.636Z,58.46
2022-09-24T15:59:24.313Z,60.04
2022-09-24T16:01:55.235Z,59.55
2022-09-24T16:04:21.934Z,60.00
2022-09-24T16:06:48.680Z,60.63
2022-09-24T16:09:15.314Z,60.02
2022-09-24T16:11:42.038Z,58.72
2022-09-24T16:14:09.691Z,58.58
2022-09-24T16:16:39.117Z,58.04
2022-09-24T16:19:06.009Z,58.84
2022-09-24T16:21:33.407Z,59.98
2022-09-24T16:24:00.047Z,58.42
2022-09-24T16:26:28.645Z,59.82
2022-09-24T16:28:55.290Z,60.36
2022-09-24T16:31:22.000Z,58.77
2022-09-24T16:33:48.704Z,58.37
2022-09-24T16:36:15.340Z,57.91
2022-09-24T16:38:41.979Z,57.50
2022-09-24T16:41:08.616Z,57.41
2022-09-24T16:43:35.222Z,57.48
2022-09-24T16:46:04.043Z,57.93
2022-09-24T16:48:32.025Z,59.03
2022-09-24T16:51:09.472Z,59.04
2022-09-24T16:53:36.918Z,58.05
2022-09-24T16:56:13.881Z,58.49
2022-09-24T16:58:42.523Z,57.87
2022-09-24T17:01:15.307Z,57.61
2022-09-24T17:03:42.319Z,57.84
2022-09-24T17:06:17.947Z,58.55
2022-09-24T17:08:45.449Z,60.69
2022-09-24T17:11:12.566Z,60.60
2022-09-24T17:13:39.286Z,61.50
2022-09-24T17:16:06.139Z,62.41
2022-09-24T17:18:32.785Z,65.42
2022-09-24T17:21:04.731Z,63.98
2022-09-24T17:23:31.450Z,63.74
2022-09-24T17:26:03.201Z,64.05
2022-09-24T17:28:38.263Z,66.71
2022-09-24T17:31:06.385Z,66.84
2022-09-24T17:33:48.695Z,67.74
2022-09-24T17:36:15.661Z,66.59
2022-09-24T17:38:42.919Z,66.97
2022-09-24T17:41:12.276Z,69.52
2022-09-24T17:43:40.743Z,69.87
2022-09-24T17:46:13.899Z,68.04
2022-09-24T17:48:45.645Z,67.49
2022-09-24T17:51:13.829Z,66.09
2022-09-24T17:53:40.714Z,67.34
2022-09-24T17:56:10.038Z,67.75
2022-09-24T17:58:40.708Z,68.60
2022-09-24T18:01:22.401Z,68.53
2022-09-24T18:03:53.614Z,66.79
2022-09-24T18:06:20.219Z,71.39
2022-09-24T18:08:47.051Z,72.44
2022-09-24T18:11:18.372Z,72.00
2022-09-24T18:13:49.407Z,72.34
2022-09-24T18:16:18.220Z,71.80
2022-09-24T18:18:45.366Z,69.31
2022-09-24T18:21:13.823Z,67.61
2022-09-24T18:23:41.095Z,66.77
2022-09-24T18:26:15.023Z,68.19
2022-09-24T18:28:47.321Z,70.49
2022-09-24T18:31:14.897Z,71.25
2022-09-24T18:33:43.489Z,71.96
2022-09-24T18:36:13.167Z,71.88
2022-09-24T18:38:39.752Z,71.31
2022-09-24T18:41:12.455Z,69.58
2022-09-24T18:43:40.358Z,69.93
2022-09-24T18:46:12.477Z,70.59
2022-09-24T18:48:45.168Z,70.16
2022-09-24T18:51:21.100Z,70.57
2022-09-24T18:53:54.084Z,70.50
2022-09-24T18:56:21.627Z,71.18
2022-09-24T18:58:48.730Z,70.77
2022-09-24T19:01:15.811Z,69.62
2022-09-24T19:03:42.792Z,66.40
2022-09-24T19:06:10.207Z,65.00
2022-09-24T19:08:36.784Z,65.95
2022-09-24T19:11:09.188Z,66.97
2022-09-24T19:13:38.562Z,65.55
2022-09-24T19:16:13.101Z,67.39
2022-09-24T19:18:41.011Z,68.23
2022-09-24T19:21:11.414Z,67.56
2022-09-24T19:23:40.826Z,67.67
2022-09-24T19:26:10.654Z,67.91
2022-09-24T19:28:40.728Z,68.86
2022-09-24T19:31:14.047Z,68.92
2022-09-24T19:33:41.161Z,67.90
2022-09-24T19:36:09.808Z,68.32
2022-09-24T19:38:36.909Z,65.63
2022-09-24T19:41:09.129Z,67.52
2022-09-24T19:43:36.422Z,66.79
2022-09-24T19:46:08.557Z,67.69
2022-09-24T19:48:41.264Z,66.47
2022-09-24T19:51:16.025Z,64.82
2022-09-24T19:53:48.350Z,64.21
2022-09-24T19:56:14.973Z,63.46
2022-09-24T19:58:44.943Z,64.37
2022-09-24T20:01:16.324Z,64.68
2022-09-24T20:03:44.371Z,66.47
2022-09-24T20:06:17.260Z,65.94
2022-09-24T20:08:44.983Z,66.02
2022-09-24T20:11:15.114Z,67.97
2022-09-24T20:13:41.790Z,70.31
2022-09-24T20:16:09.240Z,72.02
2022-09-24T20:18:35.822Z,72.34
2022-09-24T20:21:04.262Z,72.12
2022-09-24T20:23:31.457Z,69.97
2022-09-24T20:25:58.074Z,69.81
2022-09-24T20:28:24.666Z,69.64
2022-09-24T20:30:51.318Z,69.04
2022-09-24T20:33:17.950Z,69.71
2022-09-24T20:35:44.594Z,68.67
2022-09-24T20:38:11.249Z,67.34
2022-09-24T20:40:40.867Z,65.99
2022-09-24T20:43:07.519Z,67.19
2022-09-24T20:45:34.511Z,67.47
2022-09-24T20:48:01.299Z,69.50
2022-09-24T20:50:27.871Z,70.42
2022-09-24T20:52:54.481Z,68.19
2022-09-24T20:55:21.077Z,69.91
2022-09-24T20:57:47.693Z,68.88
2022-09-24T21:00:14.393Z,67.77
2022-09-24T21:02:41.594Z,69.51
2022-09-24T21:05:09.886Z,69.24
2022-09-24T21:07:37.340Z,68.22
2022-09-24T21:10:04.054Z,69.37
2022-09-24T21:12:30.656Z,69.73
2022-09-24T21:14:57.257Z,66.91
2022-09-24T21:17:24.669Z,66.83
2022-09-24T21:19:51.482Z,65.76
2022-09-24T21:22:18.061Z,65.68
2022-09-24T21:24:44.686Z,65.28
2022-09-24T21:27:11.308Z,63.92
2022-09-24T21:29:38.903Z,63.91
2022-09-24T21:32:05.798Z,65.66
2022-09-24T21:34:32.393Z,66.67
2022-09-24T21:36:59.068Z,66.84
2022-09-24T21:39:25.652Z,65.74
2022-09-24T21:41:52.353Z,68.45
2022-09-24T21:44:19.677Z,68.29
2022-09-24T21:46:47.081Z,67.32
2022-09-24T21:49:13.765Z,66.70
2022-09-24T21:51:40.424Z,68.54
2022-09-24T21:54:10.703Z,68.42
2022-09-24T21:56:37.512Z,70.36
2022-09-24T21:59:04.308Z,71.27
2022-09-24T22:01:32.358Z,69.50
2022-09-24T22:04:03.829Z,68.52
2022-09-24T22:06:31.364Z,68.67
2022-09-24T22:09:03.074Z,66.65
2022-09-24T22:11:29.797Z,66.57
2022-09-24T22:13:57.299Z,63.44
2022-09-24T22:16:23.902Z,64.55
2022-09-24T22:18:50.534Z,64.51
2022-09-24T22:21:17.273Z,64.13
2022-09-24T22:23:43.896Z,65.84
2022-09-24T22:26:11.217Z,68.10
2022-09-24T22:28:38.163Z,69.85
2022-09-24T22:31:08.059Z,68.53
2022-09-24T22:33:34.722Z,67.10
2022-09-24T22:36:01.559Z,66.01
2022-09-24T22:38:28.161Z,65.29
2022-09-24T22:40:54.783Z,65.08
2022-09-24T22:43:21.451Z,64.61
2022-09-24T22:45:48.079Z,66.23
2022-09-24T22:48:14.722Z,66.67
2022-09-24T22:50:42.970Z,66.96
2022-09-24T22:53:09.578Z,66.01
2022-09-24T22:55:36.178Z,64.87
2022-09-24T22:58:02.784Z,66.84
2022-09-24T23:00:29.423Z,67.43
2022-09-24T23:02:56.033Z,69.32
2022-09-24T23:05:22.687Z,70.59
2022-09-24T23:07:49.291Z,71.91
2022-09-24T23:10:15.938Z,71.15
2022-09-24T23:12:42.569Z,72.13
2022-09-24T23:15:09.286Z,72.29
2022-09-24T23:17:36.797Z,71.75
2022-09-24T23:20:05.508Z,72.82
2022-09-24T23:22:32.209Z,71.61
2022-09-24T23:24:58.859Z,69.53
2022-09-24T23:27:26.234Z,67.46
2022-09-24T23:29:52.940Z,65.67
2022-09-24T23:32:19.904Z,65.33
2022-09-24T23:34:46.529Z,64.13
2022-09-24T23:37:13.112Z,64.30
2022-09-24T23:39:39.857Z,64.02
2022-09-24T23:42:06.783Z,62.10
2022-09-24T23:44:34.229Z,62.53
2022-09-24T23:47:01.635Z,61.90
2022-09-24T23:49:28.348Z,61.98
2022-09-24T23:51:54.967Z,61.99
2022-09-24T23:54:21.698Z,61.90
2022-09-24T23:56:48.317Z,62.08
2022-09-24T23:59:14.891Z,60.54
